Fairbanks, AK (99701)

10:16 AM AKDT on April 30, 2017 (GMT -0800)
KAKFAIRB24 | | Change Station

Elev 540 ft 64.81 °N, 147.70 °W | Updated 1 minute ago

Clear
Clear
47.5 °F
Feels Like 48 °F
N
3.0
Wind Variable Wind from ENE
Gusts 4.0 mph

Today
High -- | Low -- °F
--% Chance of Precip.
Yesterday
High -- | Low -- °F
Precip. -- in
Pressure 29.78 in
Visibility 10.0 miles
Clouds Clear
Windchill 48 °F
Dew Point 36 °F
Humidity 63%
Rainfall 0.00 in
Snow Depth Not available.
5:19 AM 10:18 PM
Waxing Crescent, 25% visible
METAR PAFB 301758Z AUTO 07010KT 10SM CLR 08/01 A2976 RMK AO2 SLP082 T00810005 10081 20003 58010
Pressure 29.78 in
Visibility 10.0 miles
Clouds Clear
Windchill 48 °F
Dew Point 36 °F
Humidity 63%
Rainfall 0.00 in
Snow Depth Not available.
5:19 AM 10:18 PM
Waxing Crescent, 25% visible
METAR PAFB 301758Z AUTO 07010KT 10SM CLR 08/01 A2976 RMK AO2 SLP082 T00810005 10081 20003 58010

Get Severe Weather Alerts

Thanks for signing up!

Be on the lookout for a verification email in your inbox.

You'll start receiving the daily forecast at 8 AM.

×

10-Day Weather Forecast

Almanac

Astronomy

Apr. 30, 2017 Rise Set
Actual Time
Civil Twilight
Nautical Twilight
Astronomical Twilight
Moon
Length of Visible Light
Length of Day
Tomorrow will be .
, % of the Moon is Illuminated

Today's Extremes

State Highs State Lows

Community

WunderPhotos

WunderBlog® & News

Nearby

Air Quality

  Air Quality AQ Index Pollutant
Not available.

Snow Depth

Station Depth Elevation

Earthquake Activity

City Distance Mag. Time & Date
Minimum magnitude displayed is 2.5.

Coastal Water Temperatures

Place Temperature

Stations

Nearby Weather Stations

Station Location Temp. Windchill Dew Point Humidity Wind Precip. Elev Updated Type
                   

Watches & Warnings

There are currently no watches in effect.